Time;durP1;ratioP1;P1;durP2;ratioP2;P2;SDS_P1;SDS_P2;PMS_P1;PMS_P2;Temp;Humidity;BMP_temperature;BMP_pressure;BME280_temperature;BME280_humidity;BME280_pressure;Samples;Min_cycle;Max_cycle;Signal;HPM_P1;HPM_P2
2021/11/04 00:07:57;;;;;;;10.80;8.80;;;;;;;7.57;70.97;98605.36;473206;1189;141344;-57
2021/11/04 00:18:04;;;;;;;14.20;9.90;;;;;;;7.56;71.53;98605.75;477015;1189;141101;-58
2021/11/04 00:28:10;;;;;;;12.40;10.00;;;;;;;7.49;71.93;98592.81;464085;1190;141038;-55
2021/11/04 00:38:15;;;;;;;11.00;9.10;;;;;;;7.37;72.54;98588.89;462746;1190;140802;-55
2021/11/04 00:48:21;;;;;;;12.10;9.70;;;;;;;7.25;73.03;98593.16;476592;1189;144774;-57
2021/11/04 00:58:28;;;;;;;10.90;9.00;;;;;;;7.16;73.48;98584.73;464049;1190;141339;-57
2021/11/04 01:08:34;;;;;;;10.60;9.30;;;;;;;7.08;74.02;98578.09;476971;1191;141866;-57
2021/11/04 01:18:41;;;;;;;12.40;10.20;;;;;;;7.03;74.50;98571.33;477888;1189;140900;-57
2021/11/04 01:28:47;;;;;;;9.40;8.40;;;;;;;7.01;74.74;98563.56;470433;1190;141789;-55
2021/11/04 01:38:53;;;;;;;16.30;11.10;;;;;;;7.00;74.95;98576.51;460326;1190;140709;-56
2021/11/04 01:49:01;;;;;;;12.10;9.60;;;;;;;6.97;75.36;98565.80;477816;1190;140933;-58
2021/11/04 01:59:07;;;;;;;10.30;9.30;;;;;;;6.94;75.58;98556.92;477896;1189;140958;-57
2021/11/04 02:09:18;;;;;;;11.60;9.70;;;;;;;6.90;75.96;98539.09;477026;1189;141508;-58
2021/11/04 02:19:36;;;;;;;11.40;9.90;;;;;;;6.90;76.05;98515.48;471942;1189;142020;-56
2021/11/04 02:29:41;;;;;;;;;;;;;;;6.88;76.31;98505.15;460520;1190;141928;-57
2021/11/04 02:39:48;;;;;;;12.70;11.40;;;;;;;6.78;76.66;98492.08;471177;1190;127716;-57
2021/11/04 02:49:55;;;;;;;13.20;10.30;;;;;;;6.76;76.86;98479.50;477865;1190;141352;-58
2021/11/04 03:00:01;;;;;;;13.10;10.10;;;;;;;6.81;76.88;98451.80;465572;1189;141088;-56
2021/11/04 03:10:08;;;;;;;13.40;12.00;;;;;;;6.84;77.03;98400.48;460628;1180;141903;-57
2021/11/04 03:20:15;;;;;;;13.80;11.60;;;;;;;6.87;77.21;98398.89;477839;1189;141492;-57
2021/11/04 03:30:25;;;;;;;13.20;11.70;;;;;;;6.94;77.27;98405.53;463327;1184;141424;-55
2021/11/04 03:40:31;;;;;;;13.70;12.30;;;;;;;6.96;77.37;98395.16;470500;1189;144540;-55
2021/11/04 03:50:39;;;;;;;14.70;11.20;;;;;;;6.99;77.41;98377.52;477084;1189;141107;-57
2021/11/04 04:00:44;;;;;;;;;;;;;;;6.99;77.54;98366.56;477894;1189;144182;-57
2021/11/04 04:10:50;;;;;;;12.00;10.70;;;;;;;7.02;77.50;98352.82;478091;1189;129590;-58
2021/11/04 04:20:56;;;;;;;14.00;11.50;;;;;;;7.08;77.43;98342.67;462145;1190;141321;-56
2021/11/04 04:31:02;;;;;;;11.90;10.60;;;;;;;7.13;77.35;98337.07;462496;1190;140820;-56
2021/11/04 04:41:08;;;;;;;12.40;10.00;;;;;;;7.12;77.58;98354.71;476771;1190;142434;-58
2021/11/04 04:51:14;;;;;;;12.90;9.20;;;;;;;7.13;77.32;98324.23;477104;1189;143216;-58
2021/11/04 05:01:21;;;;;;;10.80;9.50;;;;;;;7.16;77.30;98287.10;477855;1189;140888;-58
2021/11/04 05:11:27;;;;;;;11.30;10.20;;;;;;;7.20;77.26;98255.02;468395;1189;141832;-55
2021/11/04 05:21:33;;;;;;;10.80;9.10;;;;;;;7.21;77.01;98250.39;477783;1190;141790;-58
2021/11/04 05:31:40;;;;;;;9.00;7.80;;;;;;;7.24;76.82;98242.34;477900;1190;141171;-58
2021/11/04 05:41:46;;;;;;;10.20;8.60;;;;;;;7.31;76.67;98241.69;471541;1190;141151;-58
2021/11/04 05:51:52;;;;;;;11.50;9.30;;;;;;;7.34;76.53;98238.51;460919;1190;141550;-57
2021/11/04 06:01:58;;;;;;;8.00;6.80;;;;;;;7.36;76.52;98240.13;460882;1190;141157;-56
2021/11/04 06:12:04;;;;;;;8.30;7.10;;;;;;;7.38;76.22;98222.92;476333;1190;141705;-58
2021/11/04 06:22:10;;;;;;;12.10;8.70;;;;;;;7.45;76.16;98232.30;477902;1190;146999;-58
2021/11/04 06:32:16;;;;;;;10.00;7.30;;;;;;;7.54;75.99;98227.80;477814;1190;141829;-58
2021/11/04 06:42:21;;;;;;;10.20;8.60;;;;;;;7.62;75.99;98203.95;476955;1190;140774;-59
2021/11/04 06:52:35;;;;;;;10.80;7.80;;;;;;;7.65;76.07;98196.20;477674;1190;140863;-59
2021/11/04 07:02:43;;;;;;;9.70;8.70;;;;;;;7.60;76.47;98172.90;472092;1190;141433;-56
2021/11/04 07:12:51;;;;;;;12.10;9.30;;;;;;;7.49;77.21;98164.77;469553;1190;140990;-56
2021/11/04 07:22:57;;;;;;;;;;;;;;;7.38;77.86;98146.07;470703;1191;141076;-59
2021/11/04 07:33:04;;;;;;;11.00;9.80;;;;;;;7.36;78.26;98117.89;477212;1190;128001;-58
2021/11/04 07:43:10;;;;;;;11.40;8.90;;;;;;;7.42;78.62;98118.30;477733;1190;140882;-64
2021/11/04 07:53:17;;;;;;;11.60;9.40;;;;;;;7.51;78.70;98099.34;477910;1189;141187;-64
2021/11/04 08:03:24;;;;;;;11.70;9.50;;;;;;;7.61;78.79;98095.86;477048;1190;145123;-64
2021/11/04 08:13:30;;;;;;;11.90;9.10;;;;;;;7.70;79.09;98091.86;471725;1189;140726;-64
2021/11/04 08:23:36;;;;;;;13.00;9.20;;;;;;;7.83;79.32;98088.26;476053;1189;141272;-62
2021/11/04 08:33:42;;;;;;;9.60;8.10;;;;;;;8.03;79.54;98085.70;477816;1189;141018;-66
2021/11/04 08:43:49;;;;;;;9.30;8.30;;;;;;;8.16;79.52;98074.18;475879;1189;140438;-63
2021/11/04 08:53:55;;;;;;;11.70;8.90;;;;;;;8.25;79.58;98051.71;477044;1189;140416;-66
2021/11/04 09:04:17;;;;;;;9.20;7.20;;;;;;;8.44;79.59;98039.80;477811;1190;142958;-66
2021/11/04 09:14:24;;;;;;;9.60;8.20;;;;;;;8.74;79.49;98004.08;467682;1189;141906;-65
2021/11/04 09:24:31;;;;;;;9.70;7.00;;;;;;;9.03;79.30;97985.36;446380;1187;10001828;-65
2021/11/04 09:34:39;;;;;;;10.10;7.00;;;;;;;9.29;79.06;97979.48;461434;1189;141003;-61
2021/11/04 09:44:46;;;;;;;9.30;7.70;;;;;;;9.34;78.63;97954.08;468252;1190;141407;-66
2021/11/04 09:54:54;;;;;;;8.70;6.20;;;;;;;9.36;78.57;97946.80;477044;1189;141919;-66
2021/11/04 10:05:08;;;;;;;15.40;8.10;;;;;;;9.55;78.51;97936.78;466843;1189;140558;-67
2021/11/04 10:15:17;;;;;;;7.60;6.90;;;;;;;9.72;78.49;97922.58;466348;1189;143496;-66
2021/11/04 10:25:27;;;;;;;8.50;6.60;;;;;;;10.01;78.01;97903.28;464828;1190;140755;-67
2021/11/04 10:35:33;;;;;;;10.00;7.40;;;;;;;10.02;77.75;97896.41;467435;1189;141326;-66
2021/11/04 10:46:06;;;;;;;10.30;6.90;;;;;;;10.04;77.83;97870.90;465715;1189;141130;-66
2021/11/04 10:56:20;;;;;;;8.50;6.50;;;;;;;10.10;77.97;97837.95;475434;1190;143407;-68
2021/11/04 11:06:28;;;;;;;10.40;7.40;;;;;;;10.22;77.90;97841.42;467817;1190;141312;-65
2021/11/04 11:16:36;;;;;;;8.00;5.60;;;;;;;10.28;77.80;97825.67;477749;1190;142831;-67
2021/11/04 11:26:45;;;;;;;5.90;4.20;;;;;;;10.37;77.55;97818.56;473156;1190;141447;-67
2021/11/04 11:37:11;;;;;;;5.70;5.10;;;;;;;10.47;77.11;97821.27;477749;1189;141214;-62
2021/11/04 11:47:46;;;;;;;6.00;5.00;;;;;;;10.60;76.74;97826.02;477041;1189;141357;-63
2021/11/04 11:58:21;;;;;;;9.40;5.20;;;;;;;10.69;76.38;97817.80;477875;1189;140996;-62
2021/11/04 12:08:36;;;;;;;5.50;3.70;;;;;;;10.82;75.86;97792.29;477836;1189;141227;-62
2021/11/04 12:18:51;;;;;;;6.90;4.10;;;;;;;10.92;75.45;97798.21;473106;1189;141311;-62
2021/11/04 12:28:58;;;;;;;5.20;3.90;;;;;;;11.06;75.14;97777.28;475201;1189;141180;-60
2021/11/04 12:39:07;;;;;;;5.30;4.60;;;;;;;11.17;74.85;97776.45;467770;1190;140804;-69
2021/11/04 12:49:13;;;;;;;6.90;4.00;;;;;;;11.23;74.44;97783.08;462199;1190;140665;-63
2021/11/04 12:59:37;;;;;;;4.20;3.70;;;;;;;11.39;74.12;97781.16;472319;1190;142638;-62
2021/11/04 13:09:52;;;;;;;5.10;4.20;;;;;;;11.53;73.75;97779.35;477679;1190;140926;-66
2021/11/04 13:20:09;;;;;;;4.60;4.10;;;;;;;11.61;73.39;97783.66;477863;1190;142861;-66
2021/11/04 13:30:15;;;;;;;6.50;5.20;;;;;;;11.56;73.45;97804.39;464462;1190;143227;-69
2021/11/04 13:40:47;;;;;;;5.50;4.00;;;;;;;11.51;73.67;97843.98;476508;1189;141924;-62
2021/11/04 13:50:53;;;;;;;4.90;3.60;;;;;;;11.30;74.88;97842.63;463202;1191;144907;-60
2021/11/04 14:01:09;;;;;;;7.00;4.90;;;;;;;10.98;78.39;97859.08;463447;1189;141484;-62
2021/11/04 14:11:26;;;;;;;6.00;4.70;;;;;;;11.12;78.32;97850.06;462846;1190;141780;-59
2021/11/04 14:21:35;;;;;;;4.90;4.40;;;;;;;11.43;77.91;97834.88;470156;1189;140566;-63
2021/11/04 14:31:45;;;;;;;7.50;4.90;;;;;;;11.06;77.88;97817.70;467022;1190;140586;-63
2021/11/04 14:41:51;;;;;;;10.60;6.60;;;;;;;10.77;78.39;97825.85;468784;1189;144185;-62
2021/11/04 15:49:41;;;;;;;3.10;2.70;;;;;;;10.65;78.50;97996.48;444099;1209;10002473;-57
2021/11/04 15:59:44;;;;;;;4.60;2.80;;;;;;;10.61;74.87;98032.38;465772;1195;140624;-57
2021/11/04 16:09:48;;;;;;;3.60;2.30;;;;;;;10.35;73.04;98057.74;475674;1195;140797;-59
2021/11/04 16:19:51;;;;;;;1.70;1.60;;;;;;;10.05;71.75;98068.83;475744;1195;142901;-59
2021/11/04 16:29:55;;;;;;;4.80;2.30;;;;;;;9.81;70.68;98078.58;472679;1195;140395;-59
2021/11/04 16:39:59;;;;;;;4.00;2.50;;;;;;;9.43;69.91;98096.02;470439;1195;140874;-58
2021/11/04 16:50:05;;;;;;;3.80;2.90;;;;;;;8.92;70.16;98121.14;463832;1194;140039;-59
2021/11/04 17:00:12;;;;;;;3.70;2.90;;;;;;;8.55;70.39;98139.95;467076;1193;140184;-58
2021/11/04 17:10:16;;;;;;;4.10;2.00;;;;;;;8.34;70.49;98154.65;466000;1193;140485;-59
2021/11/04 17:20:21;;;;;;;4.00;2.40;;;;;;;8.20;70.51;98171.03;476089;1193;141093;-59
2021/11/04 17:30:24;;;;;;;3.70;2.60;;;;;;;8.21;70.33;98199.73;475308;1193;140928;-57
2021/11/04 17:40:28;;;;;;;2.90;1.90;;;;;;;8.13;70.24;98229.09;474404;1193;141827;-58
2021/11/04 17:50:33;;;;;;;2.60;1.90;;;;;;;8.09;69.59;98226.77;472506;1194;144165;-59
2021/11/04 18:00:40;;;;;;;4.50;2.50;;;;;;;8.09;69.09;98242.08;465051;1193;140867;-58
2021/11/04 18:10:44;;;;;;;5.10;2.70;;;;;;;8.04;68.65;98265.08;466994;1192;140333;-57
2021/11/04 18:20:47;;;;;;;3.80;2.80;;;;;;;7.98;68.70;98275.68;467713;1190;140462;-58
2021/11/04 18:30:50;;;;;;;7.00;4.80;;;;;;;7.75;69.06;98285.36;471872;1190;140884;-56
2021/11/04 18:40:55;;;;;;;7.80;4.90;;;;;;;7.48;69.90;98280.52;474920;1190;140614;-61
2021/11/04 18:50:58;;;;;;;7.50;5.20;;;;;;;7.16;70.61;98292.34;474721;1189;144155;-61
2021/11/04 19:01:03;;;;;;;11.40;6.90;;;;;;;6.90;71.04;98305.08;474576;1189;140580;-62
2021/11/04 19:11:07;;;;;;;10.90;6.60;;;;;;;6.72;71.49;98305.11;477745;1189;140602;-62
2021/11/04 19:21:11;;;;;;;8.40;5.00;;;;;;;6.55;71.68;98309.54;477058;1189;144960;-61
2021/11/04 19:31:15;;;;;;;6.00;3.70;;;;;;;6.40;71.84;98313.15;466558;1189;141261;-61
2021/11/04 19:41:20;;;;;;;5.40;3.50;;;;;;;6.34;71.93;98313.90;461468;1190;140819;-62
2021/11/04 19:51:24;;;;;;;5.90;3.80;;;;;;;6.28;71.93;98333.23;476997;1189;140633;-61
2021/11/04 20:01:27;;;;;;;6.20;3.50;;;;;;;6.16;72.12;98359.91;468038;1189;141407;-62
2021/11/04 20:11:31;;;;;;;5.40;3.80;;;;;;;6.19;72.22;98356.78;470580;1190;141685;-60
2021/11/04 20:21:39;;;;;;;7.30;3.80;;;;;;;6.25;72.31;98362.27;477855;1189;142028;-62
2021/11/04 20:31:43;;;;;;;4.50;3.10;;;;;;;6.27;72.21;98381.30;470174;1189;143417;-61
2021/11/04 20:41:46;;;;;;;6.10;3.80;;;;;;;6.22;72.28;98391.16;466246;1189;141134;-61
2021/11/04 20:51:50;;;;;;;6.80;2.80;;;;;;;6.13;72.31;98406.86;477935;1189;140689;-61
2021/11/04 21:01:55;;;;;;;3.40;2.70;;;;;;;6.15;72.51;98417.89;467839;1190;145658;-61
2021/11/04 21:11:59;;;;;;;3.80;3.20;;;;;;;6.02;72.69;98420.94;476918;1190;140680;-72
2021/11/04 21:22:06;;;;;;;5.20;3.30;;;;;;;5.93;72.90;98432.96;468265;1189;140810;-63
2021/11/04 21:32:10;;;;;;;4.00;2.90;;;;;;;5.84;72.90;98447.75;474012;1190;140838;-60
2021/11/04 21:42:16;;;;;;;3.50;2.70;;;;;;;5.79;72.84;98458.09;476791;1190;141621;-59
2021/11/04 21:52:20;;;;;;;3.20;2.20;;;;;;;5.80;72.82;98463.95;477756;1190;143077;-66
2021/11/04 22:02:24;;;;;;;3.40;2.60;;;;;;;5.95;72.55;98473.48;477796;1189;141127;-61
2021/11/04 22:12:27;;;;;;;3.10;2.40;;;;;;;6.11;72.29;98487.92;465992;1189;140256;-65
2021/11/04 22:22:31;;;;;;;3.90;2.20;;;;;;;6.46;71.93;98513.23;460795;1189;140601;-64
2021/11/04 22:32:36;;;;;;;2.60;1.80;;;;;;;6.68;71.29;98516.66;468272;1189;140347;-64
2021/11/04 22:42:44;;;;;;;2.20;1.40;;;;;;;6.86;70.81;98527.86;465636;1189;140672;-63
2021/11/04 22:52:48;;;;;;;2.00;1.70;;;;;;;6.96;70.21;98537.46;475072;1189;139456;-65
2021/11/04 23:02:52;;;;;;;1.90;1.60;;;;;;;6.99;69.92;98547.70;471548;1189;139997;-65
2021/11/04 23:12:56;;;;;;;2.00;1.60;;;;;;;7.03;69.59;98558.44;468862;1189;140683;-70
2021/11/04 23:23:00;;;;;;;2.10;1.70;;;;;;;7.06;69.44;98583.27;477842;1189;140481;-71
2021/11/04 23:33:05;;;;;;;2.30;1.70;;;;;;;7.11;69.23;98601.55;477110;1189;140212;-70
2021/11/04 23:43:10;;;;;;;3.00;1.80;;;;;;;7.15;69.12;98615.60;475151;1189;140659;-63
2021/11/04 23:53:15;;;;;;;3.50;1.70;;;;;;;7.17;68.90;98626.63;466558;1189;141833;-68
